CYSY

Sachs Harbour (David Nasogaluak Jr. Saaryuaq) Airport

Sachs Harbour, Northwest Territories, Canada
METAR CYSY 221400Z 31006KT 1/4SM -FZDZ FZFG VV003 M04/M04 A2960 RMK FG8 SLP033
Observed Flight Rules
Sep-22 @ 14:00 UTC (60 minutes ago) Instrument Flight Rules
Wind Visibility Clouds Conditions
310° at 6 knots 1/4 miles
Temperatures Readings
Current -4°C / 25°F
Dewpoint -4°C / 25°F
Humidity 100%
Altimeter 29.6" Hg
Pressure 1003.3 hPa
Elevation 86
METAR CYSY 221400Z 31006KT 1/4SM -FZDZ FZFG VV003 M04/M04 A2960 RMK FG8 SLP033
Observed Flight Rules
Sep-22 @ 14:00 UTC
(60 minutes ago)
LIFR
Wind Visibility
310° at 6 knots 1/4 miles
Clouds
Conditions
Temperature Dewpoint
-4°C / 25°F -4°C / 25°F
Humidity Altimeter Pressure
100% 29.6" Hg 1003.3 hPa